Time;durP1;ratioP1;P1;durP2;ratioP2;P2;SDS_P1;SDS_P2;PMS_P1;PMS_P2;Temp;Humidity;BMP_temperature;BMP_pressure;BME280_temperature;BME280_humidity;BME280_pressure;Samples;Min_cycle;Max_cycle;Signal;HPM_P1;HPM_P2
2022/06/18 00:01:33;;;;;;;2.40;1.70;;;18.50;98.00;;;;;;5051567;28;20464;-72
2022/06/18 00:04:02;;;;;;;2.27;1.67;;;18.40;98.00;;;;;;5051764;28;20461;-72
2022/06/18 00:06:31;;;;;;;3.57;2.10;;;18.30;98.00;;;;;;5051816;28;20485;-72
2022/06/18 00:08:59;;;;;;;1.90;1.70;;;18.20;98.00;;;;;;5051434;28;20469;-72
2022/06/18 00:14:12;;;;;;;5.23;2.50;;;18.00;98.00;;;;;;5051658;28;20445;-72
2022/06/18 00:16:41;;;;;;;2.73;1.73;;;18.00;98.00;;;;;;5051745;28;20465;-72
2022/06/18 00:19:09;;;;;;;3.17;2.30;;;18.00;98.00;;;;;;5051546;28;20465;-72
2022/06/18 00:21:37;;;;;;;3.40;2.03;;;18.00;98.00;;;;;;5051711;28;20536;-72
2022/06/18 00:24:14;;;;;;;2.03;1.70;;;18.00;98.00;;;;;;5051549;28;20944;-72
2022/06/18 00:26:42;;;;;;;1.97;1.73;;;17.90;98.00;;;;;;5051650;28;20481;-72
2022/06/18 00:29:13;;;;;;;4.20;2.00;;;18.00;98.00;;;;;;5053372;28;20503;-73
2022/06/18 00:31:42;;;;;;;2.57;1.90;;;17.90;98.00;;;;;;5055722;28;20445;-72
2022/06/18 00:34:10;;;;;;;3.17;2.27;;;17.80;98.00;;;;;;5055309;28;20457;-72
2022/06/18 00:36:47;;;;;;;2.73;1.90;;;17.70;98.00;;;;;;5055715;28;20453;-72
2022/06/18 00:39:17;;;;;;;2.10;1.77;;;17.70;98.00;;;;;;5054048;28;20460;-72
2022/06/18 00:41:45;;;;;;;2.87;1.70;;;17.70;98.00;;;;;;5055647;28;20454;-72
2022/06/18 00:44:21;;;;;;;2.97;2.27;;;17.70;98.00;;;;;;5055057;28;20511;-72
2022/06/18 00:47:06;;;;;;;3.33;2.10;;;17.60;98.00;;;;;;5055265;28;20496;-72
2022/06/18 00:49:38;;;;;;;2.73;2.17;;;17.60;98.00;;;;;;5055119;28;20504;-72
2022/06/18 00:52:11;;;;;;;2.30;1.80;;;17.50;98.00;;;;;;5055356;28;20878;-72
2022/06/18 00:54:44;;;;;;;2.07;1.73;;;17.60;98.00;;;;;;5055113;28;20967;-72
2022/06/18 00:57:18;;;;;;;2.90;1.77;;;17.70;98.00;;;;;;5054891;28;20454;-72
2022/06/18 00:59:49;;;;;;;2.90;1.70;;;17.50;98.00;;;;;;5055246;28;20526;-72
2022/06/18 01:02:23;;;;;;;3.13;1.97;;;17.50;98.00;;;;;;5054787;28;20493;-72
2022/06/18 01:04:52;;;;;;;3.10;2.53;;;17.60;98.00;;;;;;5055017;28;20457;-72
2022/06/18 01:07:27;;;;;;;3.10;1.93;;;17.50;98.00;;;;;;5054781;28;20584;-72
2022/06/18 01:09:55;;;;;;;2.60;2.00;;;17.40;98.00;;;;;;5054843;28;20863;-72
2022/06/18 01:12:22;;;;;;;3.23;2.33;;;17.20;98.00;;;;;;5054908;28;20446;-73
2022/06/18 01:14:54;;;;;;;2.90;1.80;;;17.10;98.00;;;;;;5054784;28;20454;-72
2022/06/18 01:17:23;;;;;;;2.80;1.90;;;17.00;98.00;;;;;;5054927;28;20457;-72
2022/06/18 01:19:51;;;;;;;3.33;2.07;;;17.20;98.00;;;;;;5054780;28;20453;-72
2022/06/18 01:22:36;;;;;;;3.57;2.03;;;17.30;98.00;;;;;;5054606;28;20544;-72
2022/06/18 01:25:06;;;;;;;1.77;1.70;;;17.30;98.00;;;;;;5053571;28;20467;-72
2022/06/18 01:27:35;;;;;;;2.57;2.00;;;17.30;98.00;;;;;;5054622;28;20508;-72
2022/06/18 01:30:06;;;;;;;2.00;1.63;;;17.30;98.00;;;;;;5054474;28;20960;-72
2022/06/18 01:32:35;;;;;;;2.50;1.70;;;17.20;98.00;;;;;;5054651;28;20462;-72
2022/06/18 01:35:04;;;;;;;4.30;1.80;;;17.10;98.00;;;;;;5054352;28;20948;-72
2022/06/18 01:37:32;;;;;;;2.13;1.60;;;17.10;98.00;;;;;;5054447;28;20462;-72
2022/06/18 01:40:00;;;;;;;2.90;2.03;;;17.20;98.00;;;;;;5053914;28;20936;-72
2022/06/18 01:42:33;;;;;;;4.30;2.67;;;17.30;98.00;;;;;;5054363;28;20524;-72
2022/06/18 01:45:04;;;;;;;2.93;1.90;;;17.30;98.00;;;;;;5054425;28;20464;-72
2022/06/18 01:47:38;;;;;;;2.07;1.87;;;17.30;98.00;;;;;;5053984;28;20542;-72
2022/06/18 01:50:14;;;;;;;2.03;1.80;;;17.20;98.00;;;;;;5054173;28;20462;-72
2022/06/18 01:52:49;;;;;;;3.03;2.17;;;17.30;98.00;;;;;;5053447;28;20454;-73
2022/06/18 01:55:20;;;;;;;3.37;2.30;;;17.20;98.00;;;;;;5053567;28;20453;-72
2022/06/18 01:57:54;;;;;;;2.00;1.57;;;17.00;98.00;;;;;;5053591;28;20462;-72
2022/06/18 02:00:25;;;;;;;3.73;1.50;;;16.90;98.00;;;;;;5053925;28;20498;-72
2022/06/18 02:02:53;;;;;;;2.83;2.00;;;16.70;98.00;;;;;;5052529;28;20549;-72
2022/06/18 02:05:22;;;;;;;1.90;1.57;;;16.80;98.00;;;;;;5053719;28;20450;-72
2022/06/18 02:07:51;;;;;;;2.00;1.63;;;16.70;98.00;;;;;;5053499;28;20541;-72
2022/06/18 02:10:21;;;;;;;4.70;1.80;;;16.80;98.00;;;;;;5053517;28;20977;-72
2022/06/18 02:12:50;;;;;;;1.90;1.63;;;16.90;98.00;;;;;;5053562;28;20460;-72
2022/06/18 02:15:23;;;;;;;1.70;1.30;;;16.80;98.00;;;;;;5053664;28;20492;-72
2022/06/18 02:17:50;;;;;;;2.63;2.17;;;16.90;98.00;;;;;;5052431;28;20454;-72
2022/06/18 02:20:20;;;;;;;2.20;1.70;;;16.80;98.00;;;;;;5052474;28;20552;-72
2022/06/18 02:22:51;;;;;;;2.83;1.93;;;16.70;98.00;;;;;;5052352;28;20476;-72
2022/06/18 02:25:21;;;;;;;2.77;1.67;;;16.70;98.00;;;;;;5052328;28;20461;-72
2022/06/18 02:27:56;;;;;;;3.20;2.23;;;16.80;98.00;;;;;;5052320;28;20493;-72
2022/06/18 02:30:25;;;;;;;1.90;1.67;;;17.00;98.00;;;;;;5053400;28;20483;-72
2022/06/18 02:32:59;;;;;;;3.07;2.00;;;16.90;98.00;;;;;;5053475;28;20461;-72
2022/06/18 02:35:28;;;;;;;2.80;1.93;;;16.80;98.00;;;;;;5053304;28;20454;-72
2022/06/18 02:37:56;;;;;;;2.30;1.87;;;16.80;98.00;;;;;;5053254;28;20539;-72
2022/06/18 02:40:26;;;;;;;2.10;1.70;;;16.80;98.00;;;;;;5053608;28;20460;-72
2022/06/18 02:42:58;;;;;;;2.30;1.80;;;16.70;98.00;;;;;;5053160;28;20476;-72
2022/06/18 02:45:28;;;;;;;3.00;1.93;;;16.50;98.00;;;;;;5053575;28;20466;-72
2022/06/18 02:47:58;;;;;;;2.03;1.63;;;16.30;98.00;;;;;;5051720;28;20477;-72
2022/06/18 02:50:30;;;;;;;3.63;1.80;;;16.30;98.00;;;;;;5052883;28;20940;-72
2022/06/18 02:53:01;;;;;;;1.60;1.40;;;16.30;98.00;;;;;;5052272;28;20468;-72
2022/06/18 02:55:33;;;;;;;2.00;1.67;;;16.30;98.00;;;;;;5052957;28;20546;-72
2022/06/18 02:58:05;;;;;;;2.50;1.63;;;16.40;98.00;;;;;;5052427;28;20462;-72
2022/06/18 03:00:36;;;;;;;1.93;1.77;;;16.40;98.00;;;;;;5052797;28;20465;-72
2022/06/18 03:03:06;;;;;;;2.77;1.70;;;16.20;98.00;;;;;;5052633;28;20557;-72
2022/06/18 03:05:33;;;;;;;1.73;1.50;;;16.30;98.00;;;;;;5052656;28;20465;-72
2022/06/18 03:08:00;;;;;;;3.13;2.10;;;16.30;98.00;;;;;;5052416;28;20481;-72
2022/06/18 03:13:13;;;;;;;5.50;4.20;;;16.20;98.00;;;;;;5052621;28;20584;-72
2022/06/18 03:15:42;;;;;;;2.50;1.60;;;16.30;98.00;;;;;;5052387;28;20461;-72
2022/06/18 03:18:09;;;;;;;3.30;1.63;;;16.30;98.00;;;;;;5052460;28;20454;-72
2022/06/18 03:20:57;;;;;;;3.13;1.80;;;16.30;98.00;;;;;;5052392;28;20468;-72
2022/06/18 03:23:25;;;;;;;2.13;1.60;;;16.30;98.00;;;;;;5052363;28;20940;-72
2022/06/18 03:25:53;;;;;;;2.80;1.70;;;16.30;98.00;;;;;;5051239;28;20457;-72
2022/06/18 03:28:23;;;;;;;2.70;1.67;;;16.30;98.00;;;;;;5052128;28;20493;-72
2022/06/18 03:30:51;;;;;;;2.27;2.00;;;16.30;98.00;;;;;;5052633;28;20454;-72
2022/06/18 03:33:18;;;;;;;3.10;1.97;;;16.20;98.00;;;;;;5051165;28;20453;-72
2022/06/18 03:35:48;;;;;;;3.13;1.90;;;16.20;98.00;;;;;;5052327;28;20457;-72
2022/06/18 03:38:17;;;;;;;2.63;1.73;;;16.10;98.00;;;;;;5052232;28;20460;-72
2022/06/18 03:40:45;;;;;;;2.10;1.83;;;16.20;98.00;;;;;;5052450;28;20458;-72
2022/06/18 03:43:12;;;;;;;4.00;2.07;;;16.20;98.00;;;;;;5052099;28;20488;-72
2022/06/18 03:45:44;;;;;;;2.27;1.63;;;16.10;98.00;;;;;;5052368;28;20458;-72
2022/06/18 03:48:19;;;;;;;2.93;2.37;;;16.00;98.00;;;;;;5051836;28;21003;-72
2022/06/18 03:50:46;;;;;;;4.43;1.50;;;16.00;98.00;;;;;;5051114;28;20449;-72
2022/06/18 03:53:13;;;;;;;3.10;1.87;;;16.00;98.00;;;;;;5051818;28;20462;-72
2022/06/18 03:55:44;;;;;;;4.47;2.50;;;16.00;98.00;;;;;;5051755;28;20458;-72
2022/06/18 03:58:12;;;;;;;2.23;1.60;;;16.00;98.00;;;;;;5051722;28;20457;-72
2022/06/18 04:00:41;;;;;;;2.23;1.70;;;16.00;98.00;;;;;;5051714;28;20966;-72
2022/06/18 04:03:08;;;;;;;1.70;1.50;;;16.10;98.00;;;;;;5051440;28;20465;-72
2022/06/18 04:05:41;;;;;;;2.70;1.83;;;16.10;98.00;;;;;;5051819;28;20508;-72
2022/06/18 04:08:09;;;;;;;2.13;1.80;;;16.00;98.00;;;;;;5051607;28;20513;-72
2022/06/18 04:10:37;;;;;;;2.60;1.87;;;15.90;98.00;;;;;;5050421;28;20489;-72
2022/06/18 04:13:05;;;;;;;1.63;1.60;;;15.90;98.00;;;;;;5051606;28;20988;-72
2022/06/18 04:15:32;;;;;;;2.60;1.93;;;15.90;98.00;;;;;;5050388;28;20461;-72
2022/06/18 04:18:00;;;;;;;3.73;1.67;;;15.90;98.00;;;;;;5051471;28;20449;-72
2022/06/18 04:20:30;;;;;;;2.90;2.00;;;15.90;98.00;;;;;;5051598;28;20454;-72
2022/06/18 04:22:57;;;;;;;4.37;1.80;;;16.00;98.00;;;;;;5051525;28;20454;-72
2022/06/18 04:25:25;;;;;;;2.63;1.80;;;16.10;98.00;;;;;;5050499;28;20488;-72
2022/06/18 04:27:56;;;;;;;1.83;1.70;;;16.10;98.00;;;;;;5051305;28;20481;-72
2022/06/18 04:30:25;;;;;;;3.57;1.97;;;16.10;98.00;;;;;;5051316;28;20919;-72
2022/06/18 04:32:52;;;;;;;2.03;1.70;;;16.20;98.00;;;;;;5050733;28;20461;-72
2022/06/18 04:35:25;;;;;;;2.63;1.93;;;16.20;98.00;;;;;;5050636;28;20460;-72
2022/06/18 04:37:52;;;;;;;2.37;2.00;;;16.20;98.00;;;;;;5050347;28;20464;-72
2022/06/18 04:40:22;;;;;;;2.50;1.90;;;16.30;98.00;;;;;;5051711;28;20454;-72
2022/06/18 04:42:50;;;;;;;2.90;1.90;;;16.50;98.00;;;;;;5051672;28;21085;-72
2022/06/18 04:45:17;;;;;;;1.97;1.70;;;16.70;98.00;;;;;;5050837;28;20454;-72
2022/06/18 04:47:44;;;;;;;3.50;1.97;;;16.90;98.00;;;;;;5050178;28;20477;-72
2022/06/18 04:50:18;;;;;;;3.70;2.13;;;17.10;98.00;;;;;;5051313;28;20458;-72
2022/06/18 04:52:47;;;;;;;4.33;2.40;;;16.90;98.00;;;;;;5051120;28;20454;-72
2022/06/18 04:55:15;;;;;;;2.90;2.00;;;16.90;98.00;;;;;;5051269;28;20464;-72
2022/06/18 04:57:42;;;;;;;3.70;2.20;;;16.90;98.00;;;;;;5051208;28;20461;-72
2022/06/18 05:00:12;;;;;;;1.70;1.50;;;17.00;98.00;;;;;;5050053;28;20461;-72
2022/06/18 05:02:40;;;;;;;3.97;2.10;;;17.10;98.00;;;;;;5051163;28;20469;-72
2022/06/18 05:05:12;;;;;;;2.10;1.60;;;17.20;98.00;;;;;;5051062;28;20456;-72
2022/06/18 05:07:39;;;;;;;2.47;1.73;;;17.30;98.00;;;;;;5049877;28;20478;-72
2022/06/18 05:10:10;;;;;;;2.33;2.00;;;17.50;98.00;;;;;;5051066;28;20462;-72
2022/06/18 05:12:37;;;;;;;3.00;2.10;;;17.60;98.00;;;;;;5051136;28;20470;-72
2022/06/18 05:15:05;;;;;;;2.33;2.10;;;17.70;98.00;;;;;;5052823;28;20454;-72
2022/06/18 05:17:36;;;;;;;1.93;1.70;;;17.80;98.00;;;;;;5054653;28;20438;-72
2022/06/18 05:20:05;;;;;;;3.30;2.30;;;17.80;98.00;;;;;;5054602;28;20445;-72
2022/06/18 05:22:32;;;;;;;2.60;2.10;;;17.90;98.00;;;;;;5054824;28;20455;-72
2022/06/18 05:24:59;;;;;;;3.53;2.30;;;18.00;98.00;;;;;;5054482;28;20532;-72
2022/06/18 05:27:32;;;;;;;2.33;1.83;;;18.00;98.00;;;;;;5054588;28;20861;-72
2022/06/18 05:29:59;;;;;;;3.33;2.20;;;18.00;98.00;;;;;;5053107;28;20505;-72
2022/06/18 05:32:28;;;;;;;2.37;1.73;;;18.00;98.00;;;;;;5054429;28;20466;-72
2022/06/18 05:34:56;;;;;;;2.03;1.73;;;18.10;98.00;;;;;;5053228;28;20465;-72
2022/06/18 05:37:27;;;;;;;2.13;1.97;;;18.10;98.00;;;;;;5054532;28;20477;-72
2022/06/18 05:39:54;;;;;;;2.73;1.97;;;18.20;98.00;;;;;;5054414;28;20922;-72
2022/06/18 05:42:22;;;;;;;2.50;2.03;;;18.40;98.00;;;;;;5054415;28;20465;-72
2022/06/18 05:44:51;;;;;;;2.27;2.10;;;18.50;98.00;;;;;;5054467;28;20912;-72
2022/06/18 05:47:22;;;;;;;4.47;2.30;;;18.60;98.00;;;;;;5054233;28;20453;-72
2022/06/18 05:49:50;;;;;;;2.07;1.77;;;18.70;98.00;;;;;;5054426;28;20461;-72
2022/06/18 05:52:19;;;;;;;3.70;2.43;;;19.00;98.00;;;;;;5052870;28;20561;-72
2022/06/18 05:54:46;;;;;;;3.30;2.10;;;19.10;98.00;;;;;;5053917;28;20974;-72
2022/06/18 05:57:14;;;;;;;4.17;2.07;;;19.20;98.00;;;;;;5053826;28;20462;-72
2022/06/18 05:59:42;;;;;;;3.80;2.50;;;19.30;98.00;;;;;;5053769;28;20453;-72
2022/06/18 06:02:14;;;;;;;3.43;2.30;;;19.50;98.00;;;;;;5053919;28;20504;-72
2022/06/18 06:04:42;;;;;;;3.73;2.17;;;19.50;98.00;;;;;;5053664;28;20457;-72
2022/06/18 06:07:10;;;;;;;2.77;2.10;;;19.50;98.00;;;;;;5052523;28;20914;-72
2022/06/18 06:12:22;;;;;;;2.80;2.03;;;19.50;98.00;;;;;;5052538;28;20535;-72
2022/06/18 06:14:50;;;;;;;2.47;2.03;;;19.80;98.00;;;;;;5051601;28;20462;-72
2022/06/18 06:17:22;;;;;;;2.90;2.37;;;19.90;98.00;;;;;;5052617;28;20453;-72
2022/06/18 06:19:49;;;;;;;3.20;2.50;;;20.10;98.00;;;;;;5052722;28;20462;-72
2022/06/18 06:22:17;;;;;;;3.40;2.67;;;20.10;98.00;;;;;;5052681;28;20446;-72
2022/06/18 06:24:44;;;;;;;4.30;2.43;;;20.10;98.00;;;;;;5052727;28;20512;-72
2022/06/18 06:27:11;;;;;;;6.57;2.90;;;20.20;98.00;;;;;;5052151;28;20988;-72
2022/06/18 06:29:39;;;;;;;3.60;2.33;;;20.30;98.00;;;;;;5052525;28;20466;-72
2022/06/18 06:32:07;;;;;;;3.00;2.23;;;20.40;98.00;;;;;;5052585;28;20515;-72
2022/06/18 06:34:36;;;;;;;3.60;2.40;;;20.70;98.00;;;;;;5051225;28;20463;-72
2022/06/18 06:37:04;;;;;;;3.33;2.27;;;20.70;98.00;;;;;;5052697;28;21136;-68
2022/06/18 06:39:31;;;;;;;3.33;2.37;;;20.80;98.00;;;;;;5052687;28;20556;-69
2022/06/18 06:41:58;;;;;;;6.60;2.73;;;20.90;98.00;;;;;;5052646;28;20458;-67
2022/06/18 06:44:25;;;;;;;2.97;1.77;;;21.00;98.00;;;;;;5051343;28;20449;-67
2022/06/18 06:46:54;;;;;;;3.67;2.40;;;21.10;98.00;;;;;;5051349;28;20461;-67
2022/06/18 06:49:22;;;;;;;4.30;2.13;;;21.20;98.00;;;;;;5052317;28;20490;-67
2022/06/18 06:51:50;;;;;;;4.00;2.53;;;21.40;98.00;;;;;;5052311;28;20461;-68
2022/06/18 06:54:18;;;;;;;3.27;2.33;;;21.50;98.00;;;;;;5051035;28;20535;-66
2022/06/18 06:59:29;;;;;;;3.13;2.30;;;21.60;98.00;;;;;;5053308;28;20525;-67
2022/06/18 07:01:56;;;;;;;5.60;2.60;;;21.70;98.00;;;;;;5053380;28;20454;-67
2022/06/18 07:04:23;;;;;;;6.00;2.50;;;21.90;98.00;;;;;;5053267;28;20454;-67
2022/06/18 07:06:52;;;;;;;3.10;2.27;;;22.00;98.00;;;;;;5051819;28;20466;-66
2022/06/18 07:09:19;;;;;;;3.00;2.13;;;22.10;98.00;;;;;;5051851;28;20489;-66
2022/06/18 07:11:46;;;;;;;4.80;2.60;;;22.30;98.00;;;;;;5052882;28;20465;-66
2022/06/18 07:14:15;;;;;;;4.30;2.67;;;22.40;98.00;;;;;;5052634;28;20457;-67
2022/06/18 07:16:49;;;;;;;3.20;2.20;;;22.50;98.00;;;;;;5052800;28;20545;-67
2022/06/18 07:19:17;;;;;;;3.80;2.60;;;22.70;97.90;;;;;;5052065;28;20544;-68
2022/06/18 07:21:44;;;;;;;3.20;2.23;;;22.90;98.00;;;;;;5051754;28;20445;-69
2022/06/18 07:24:12;;;;;;;3.30;2.50;;;23.10;96.90;;;;;;5051745;28;20449;-66
2022/06/18 07:26:39;;;;;;;3.97;2.60;;;23.30;97.60;;;;;;5051730;28;20458;-65
2022/06/18 07:29:06;;;;;;;3.00;2.40;;;23.40;96.90;;;;;;5051443;28;20504;-65
2022/06/18 07:31:35;;;;;;;3.90;2.60;;;23.50;97.00;;;;;;5051611;28;20956;-65
2022/06/18 07:34:06;;;;;;;2.70;2.10;;;23.60;96.00;;;;;;5051211;28;20511;-68
2022/06/18 07:36:35;;;;;;;3.13;2.10;;;23.80;95.50;;;;;;5050369;28;20461;-67
2022/06/18 07:39:02;;;;;;;3.50;2.40;;;24.00;96.00;;;;;;5051395;28;21009;-66
2022/06/18 07:41:35;;;;;;;4.27;2.33;;;24.20;95.60;;;;;;5051471;28;20560;-67
2022/06/18 07:44:03;;;;;;;3.27;2.10;;;24.30;93.90;;;;;;5051422;28;20545;-68
2022/06/18 07:46:31;;;;;;;5.13;2.77;;;24.50;95.20;;;;;;5051408;28;20458;-67
2022/06/18 07:48:58;;;;;;;3.07;2.20;;;24.60;95.50;;;;;;5050199;28;20485;-68
2022/06/18 07:51:27;;;;;;;3.70;2.57;;;24.80;92.60;;;;;;5051646;28;20464;-67
2022/06/18 07:53:55;;;;;;;3.47;2.27;;;24.90;93.00;;;;;;5051445;28;20590;-68
2022/06/18 07:56:22;;;;;;;2.40;1.97;;;25.00;92.60;;;;;;5051392;28;20450;-68
2022/06/18 07:58:51;;;;;;;3.30;2.27;;;25.10;92.80;;;;;;5051193;28;20893;-66
2022/06/18 08:01:18;;;;;;;3.20;2.30;;;25.10;91.30;;;;;;5051062;28;20468;-63
2022/06/18 08:03:45;;;;;;;3.37;2.50;;;25.30;90.70;;;;;;5051107;28;20457;-65
2022/06/18 08:06:12;;;;;;;3.70;2.53;;;25.50;91.60;;;;;;5049778;28;20819;-66
2022/06/18 08:08:39;;;;;;;3.13;2.10;;;25.70;92.00;;;;;;5050891;28;20503;-66
2022/06/18 08:11:11;;;;;;;3.60;2.27;;;25.80;90.80;;;;;;5050821;28;20982;-66
2022/06/18 08:13:38;;;;;;;4.37;2.60;;;25.80;90.00;;;;;;5051023;28;20948;-66
2022/06/18 08:16:09;;;;;;;3.90;2.47;;;26.00;92.10;;;;;;5050952;28;20453;-67
2022/06/18 08:18:36;;;;;;;4.80;2.87;;;26.10;89.50;;;;;;5051147;28;20450;-66
2022/06/18 08:21:07;;;;;;;3.33;2.60;;;26.20;89.20;;;;;;5051006;28;20453;-66
2022/06/18 08:23:36;;;;;;;4.50;2.60;;;26.20;88.40;;;;;;5051013;28;20458;-66
2022/06/18 08:26:03;;;;;;;4.10;2.90;;;26.30;89.90;;;;;;5050777;28;20450;-66
2022/06/18 08:28:33;;;;;;;4.70;3.10;;;26.40;88.70;;;;;;5050608;28;20496;-66
2022/06/18 08:31:02;;;;;;;4.60;2.63;;;26.40;88.50;;;;;;5050490;28;20466;-66
2022/06/18 08:33:31;;;;;;;5.40;2.57;;;26.60;88.10;;;;;;5050752;28;20450;-66
2022/06/18 08:35:59;;;;;;;5.13;2.70;;;26.70;88.10;;;;;;5050772;28;20477;-66
2022/06/18 08:38:26;;;;;;;2.83;2.40;;;26.80;88.10;;;;;;5050863;28;20787;-66
2022/06/18 08:41:09;;;;;;;3.67;2.40;;;26.90;87.40;;;;;;5050731;28;20460;-66
2022/06/18 08:44:04;;;;;;;3.77;2.40;;;27.00;86.10;;;;;;5050971;28;20457;-66
2022/06/18 08:46:43;;;;;;;4.90;3.07;;;27.10;87.90;;;;;;5050646;28;20465;-66
2022/06/18 08:49:32;;;;;;;4.80;3.07;;;27.20;85.50;;;;;;5051141;28;21002;-66
2022/06/18 08:52:12;;;;;;;3.70;2.40;;;27.30;85.00;;;;;;5053523;28;20466;-66
2022/06/18 08:54:56;;;;;;;3.70;2.40;;;27.40;84.10;;;;;;5054555;28;20461;-66
2022/06/18 08:57:31;;;;;;;3.00;2.50;;;27.50;85.60;;;;;;5054825;28;20449;-66
2022/06/18 09:00:06;;;;;;;4.27;2.87;;;27.60;84.90;;;;;;5054493;28;20460;-66
2022/06/18 09:02:39;;;;;;;2.90;2.50;;;27.70;84.00;;;;;;5054589;28;20974;-66
2022/06/18 09:05:20;;;;;;;2.93;2.50;;;27.90;84.20;;;;;;5054203;28;20454;-66
2022/06/18 09:08:11;;;;;;;4.50;2.60;;;27.90;82.10;;;;;;5054240;28;20463;-66
2022/06/18 09:11:01;;;;;;;3.47;2.40;;;28.00;82.30;;;;;;5054077;28;20489;-66
2022/06/18 09:13:33;;;;;;;3.70;2.60;;;28.10;81.70;;;;;;5054022;28;20469;-66
2022/06/18 09:16:04;;;;;;;3.53;2.23;;;28.30;80.80;;;;;;5054188;28;20465;-66
2022/06/18 09:18:36;;;;;;;4.23;2.70;;;28.40;80.60;;;;;;5053975;28;20511;-66
2022/06/18 09:21:10;;;;;;;4.23;2.70;;;28.60;80.20;;;;;;5039639;28;20465;-66
2022/06/18 09:23:44;;;;;;;2.80;2.40;;;28.70;79.30;;;;;;5034133;28;20462;-66
2022/06/18 09:26:18;;;;;;;2.97;2.27;;;28.80;79.60;;;;;;5034051;28;20520;-69
2022/06/18 09:28:52;;;;;;;5.37;2.70;;;28.90;76.70;;;;;;5033558;28;20486;-66
2022/06/18 09:31:26;;;;;;;5.77;2.77;;;28.90;77.80;;;;;;5033853;28;20475;-67
2022/06/18 09:33:59;;;;;;;2.67;2.27;;;29.00;76.20;;;;;;5033723;28;20450;-68
2022/06/18 09:36:33;;;;;;;3.10;2.60;;;29.10;76.20;;;;;;5033771;28;20461;-67
2022/06/18 09:39:07;;;;;;;3.27;2.60;;;29.30;77.20;;;;;;5033573;28;20454;-69
2022/06/18 09:41:40;;;;;;;3.17;2.40;;;29.40;75.40;;;;;;5033304;28;20461;-68
2022/06/18 09:44:12;;;;;;;3.30;2.67;;;29.50;76.50;;;;;;5033476;28;20470;-67
2022/06/18 09:46:45;;;;;;;2.40;2.00;;;29.60;74.10;;;;;;5033686;28;20458;-67
2022/06/18 09:49:12;;;;;;;3.63;2.50;;;29.80;71.40;;;;;;5033435;28;20486;-67
2022/06/18 09:51:48;;;;;;;2.93;2.10;;;29.90;73.00;;;;;;5033745;28;20799;-68
2022/06/18 09:54:18;;;;;;;2.20;1.90;;;30.10;73.10;;;;;;5033636;28;20454;-68
2022/06/18 09:56:52;;;;;;;3.10;2.10;;;30.20;69.40;;;;;;5033271;28;20473;-68
2022/06/18 09:59:22;;;;;;;2.17;2.03;;;30.40;70.00;;;;;;5033504;28;20462;-68
2022/06/18 10:01:55;;;;;;;2.50;1.90;;;30.50;68.20;;;;;;5032917;28;20454;-68
2022/06/18 10:07:18;;;;;;;2.60;2.17;;;30.60;68.20;;;;;;5032350;28;20449;-68
2022/06/18 10:09:50;;;;;;;3.23;2.30;;;30.80;68.90;;;;;;5033010;28;20494;-68
2022/06/18 10:12:21;;;;;;;2.33;2.10;;;31.00;68.40;;;;;;5032892;28;20611;-68
2022/06/18 10:14:53;;;;;;;2.30;1.87;;;31.10;69.50;;;;;;5031543;28;20466;-69
2022/06/18 10:17:38;;;;;;;2.97;2.20;;;31.20;64.50;;;;;;5033464;28;20458;-69
2022/06/18 10:20:13;;;;;;;2.57;1.90;;;31.10;65.40;;;;;;5032622;28;20465;-66
2022/06/18 10:23:01;;;;;;;3.57;2.33;;;31.20;65.90;;;;;;5032968;28;20458;-67
2022/06/18 10:25:36;;;;;;;2.90;1.93;;;31.50;67.70;;;;;;5032841;28;20463;-68
2022/06/18 10:28:13;;;;;;;2.83;2.13;;;31.70;67.10;;;;;;5032677;28;20520;-67
2022/06/18 10:30:49;;;;;;;2.23;2.00;;;31.90;64.90;;;;;;5032779;28;20490;-66
2022/06/18 10:33:24;;;;;;;2.20;1.87;;;32.00;65.10;;;;;;5032916;28;20462;-67
2022/06/18 10:36:00;;;;;;;2.63;1.90;;;32.20;65.50;;;;;;5032827;28;20466;-68
2022/06/18 10:38:47;;;;;;;2.13;1.90;;;32.30;65.70;;;;;;5032556;28;20466;-67
2022/06/18 10:41:21;;;;;;;2.87;2.33;;;32.50;63.40;;;;;;5031386;28;20964;-69
2022/06/18 10:44:02;;;;;;;4.10;2.37;;;32.50;64.30;;;;;;5031332;28;20462;-69
2022/06/18 10:46:30;;;;;;;2.77;2.00;;;32.70;63.90;;;;;;5031374;28;20477;-68
2022/06/18 10:49:00;;;;;;;2.20;1.93;;;32.90;65.50;;;;;;5031121;28;20505;-68
2022/06/18 10:51:34;;;;;;;2.17;1.80;;;33.00;61.50;;;;;;5032741;28;20537;-68
2022/06/18 10:54:03;;;;;;;2.00;1.70;;;33.00;60.90;;;;;;5032334;28;20972;-68
2022/06/18 10:56:32;;;;;;;2.57;1.97;;;33.10;62.30;;;;;;5032458;28;20462;-69
2022/06/18 10:59:01;;;;;;;2.27;1.90;;;33.10;60.10;;;;;;5032091;28;20461;-68
2022/06/18 11:01:34;;;;;;;2.53;2.07;;;33.20;61.30;;;;;;5032030;28;20462;-67
2022/06/18 11:04:03;;;;;;;2.33;1.90;;;33.40;58.10;;;;;;5030569;28;20459;-67
2022/06/18 11:06:32;;;;;;;2.10;1.90;;;33.50;59.40;;;;;;5032045;28;20458;-67
2022/06/18 11:09:03;;;;;;;2.50;2.00;;;33.60;57.80;;;;;;5030613;28;20491;-67
2022/06/18 11:11:36;;;;;;;1.97;1.70;;;33.80;58.40;;;;;;5031714;28;20466;-72
2022/06/18 11:14:15;;;;;;;2.73;2.10;;;33.70;56.30;;;;;;5031499;28;20546;-71
2022/06/18 11:16:44;;;;;;;1.97;1.80;;;33.60;58.90;;;;;;5033479;28;20473;-70
2022/06/18 11:19:18;;;;;;;2.27;1.90;;;33.60;58.60;;;;;;5031719;28;20459;-70
2022/06/18 11:21:45;;;;;;;2.10;1.90;;;33.60;58.30;;;;;;5031191;28;20455;-70
2022/06/18 11:24:29;;;;;;;1.70;1.60;;;33.60;58.80;;;;;;5031571;28;20459;-70
2022/06/18 11:27:00;;;;;;;2.63;2.10;;;33.70;58.70;;;;;;5031672;28;20465;-72
2022/06/18 11:29:32;;;;;;;3.10;2.20;;;33.80;58.40;;;;;;5031239;28;21066;-72
2022/06/18 11:32:02;;;;;;;2.53;2.10;;;33.90;59.40;;;;;;5031497;28;20512;-71
2022/06/18 11:34:36;;;;;;;3.30;2.20;;;34.00;62.30;;;;;;5031403;28;20960;-72
2022/06/18 11:37:17;;;;;;;2.60;2.10;;;34.10;61.40;;;;;;5031414;28;20546;-69
2022/06/18 11:39:54;;;;;;;2.90;2.40;;;34.40;59.70;;;;;;5031349;28;20450;-70
2022/06/18 11:42:26;;;;;;;2.37;2.17;;;34.60;59.70;;;;;;5031554;28;20471;-70
2022/06/18 11:44:59;;;;;;;3.57;2.50;;;34.80;61.20;;;;;;5031312;28;20524;-68
2022/06/18 11:47:29;;;;;;;2.80;2.20;;;34.90;60.50;;;;;;5031386;28;20822;-71
2022/06/18 11:50:01;;;;;;;3.00;2.30;;;35.10;61.10;;;;;;5031384;28;20491;-69
2022/06/18 11:52:36;;;;;;;2.50;2.13;;;35.10;60.20;;;;;;5041951;28;20462;-68
2022/06/18 11:55:20;;;;;;;2.43;2.17;;;35.10;60.30;;;;;;5051206;28;20940;-67
2022/06/18 11:57:56;;;;;;;3.10;2.37;;;35.10;59.90;;;;;;5051268;28;20757;-68
2022/06/18 12:00:26;;;;;;;4.30;2.53;;;35.10;60.80;;;;;;5016040;28;20459;-69
2022/06/18 12:02:58;;;;;;;2.73;2.40;;;35.20;60.80;;;;;;5023864;28;20957;-69
2022/06/18 12:05:31;;;;;;;3.60;2.47;;;35.30;60.80;;;;;;5026301;28;20468;-69
2022/06/18 12:08:00;;;;;;;5.20;3.23;;;35.40;60.90;;;;;;5023613;28;20462;-68
2022/06/18 12:10:41;;;;;;;2.73;2.30;;;35.40;62.50;;;;;;5028423;28;20499;-70
2022/06/18 12:13:25;;;;;;;3.70;2.23;;;35.40;59.90;;;;;;5026642;28;20469;-69
2022/06/18 12:16:01;;;;;;;3.00;2.27;;;35.40;61.90;;;;;;5028684;28;20459;-67
2022/06/18 12:18:36;;;;;;;3.57;2.50;;;35.50;59.00;;;;;;5028682;28;20462;-67
2022/06/18 12:21:12;;;;;;;3.40;2.67;;;35.40;59.50;;;;;;5031809;28;21834;-69
2022/06/18 12:23:52;;;;;;;4.57;2.40;;;35.40;60.90;;;;;;5048943;28;20464;-69
2022/06/18 12:26:26;;;;;;;4.30;2.70;;;35.50;62.70;;;;;;5046832;28;20466;-71
2022/06/18 12:29:21;;;;;;;4.67;2.80;;;35.60;61.80;;;;;;5046640;28;20464;-71
2022/06/18 12:31:55;;;;;;;4.00;2.53;;;35.70;59.80;;;;;;5050380;28;20458;-71
2022/06/18 12:34:29;;;;;;;3.30;2.53;;;35.90;58.90;;;;;;5033792;28;20473;-71
2022/06/18 12:37:07;;;;;;;6.77;2.67;;;36.00;60.50;;;;;;5033944;28;20449;-70
2022/06/18 12:39:45;;;;;;;3.10;2.63;;;36.20;61.90;;;;;;5050064;28;20465;-70
2022/06/18 12:42:20;;;;;;;3.97;2.53;;;36.20;59.20;;;;;;5032437;28;20485;-71
2022/06/18 12:44:53;;;;;;;2.60;2.17;;;36.30;59.90;;;;;;5034071;28;20454;-69
2022/06/18 12:47:31;;;;;;;5.40;3.20;;;36.40;62.10;;;;;;5047047;28;20461;-71
2022/06/18 12:50:07;;;;;;;3.20;2.60;;;36.30;60.60;;;;;;5054685;28;20817;-69
2022/06/18 12:52:43;;;;;;;4.13;2.40;;;36.50;61.70;;;;;;5054729;28;20484;-71
2022/06/18 12:55:26;;;;;;;3.27;2.67;;;36.60;62.30;;;;;;5054478;28;20492;-74
2022/06/18 12:58:03;;;;;;;4.20;2.30;;;36.70;61.70;;;;;;5054369;28;20466;-74
2022/06/18 13:00:37;;;;;;;4.30;2.80;;;36.80;60.80;;;;;;5054420;28;20477;-70
2022/06/18 13:03:43;;;;;;;4.27;3.10;;;36.90;59.60;;;;;;5049658;28;20467;-70
2022/06/18 13:06:21;;;;;;;3.10;2.30;;;37.00;60.30;;;;;;5030102;28;20462;-74
2022/06/18 13:08:57;;;;;;;4.30;2.70;;;37.00;58.80;;;;;;5034206;28;20482;-72
2022/06/18 13:11:36;;;;;;;3.90;2.40;;;37.10;60.20;;;;;;5034199;28;20482;-74
2022/06/18 13:14:13;;;;;;;3.33;2.47;;;37.00;58.10;;;;;;5032575;28;20463;-74
2022/06/18 13:16:47;;;;;;;4.00;2.50;;;37.10;59.30;;;;;;5034062;28;20466;-76
2022/06/18 13:19:20;;;;;;;9.80;2.50;;;37.20;61.90;;;;;;5034068;28;20478;-75
2022/06/18 13:21:48;;;;;;;2.93;2.40;;;37.40;59.50;;;;;;5033912;28;20450;-75
2022/06/18 13:30:01;;;;;;;2.70;2.40;;;38.00;59.00;;;;;;5033801;28;20547;-73